createdAt,value
2022-12-03T00:02:18.958Z,21.25
2022-12-03T00:04:45.718Z,18.92
2022-12-03T00:07:12.090Z,16.77
2022-12-03T00:09:38.439Z,21.13
2022-12-03T00:12:19.812Z,19.25
2022-12-03T00:17:32.709Z,15.90
2022-12-03T00:20:22.796Z,22.73
2022-12-03T00:23:04.104Z,20.93
2022-12-03T00:28:11.194Z,18.38
2022-12-03T00:30:44.379Z,17.42
2022-12-03T00:33:10.800Z,24.25
2022-12-03T00:35:40.609Z,22.00
2022-12-03T00:38:09.955Z,20.92
2022-12-03T00:40:58.846Z,21.95
2022-12-03T00:43:23.513Z,23.92
2022-12-03T00:46:36.949Z,21.38
2022-12-03T00:49:09.065Z,24.80
2022-12-03T00:51:35.852Z,19.55
2022-12-03T00:55:01.573Z,22.25
2022-12-03T00:57:31.395Z,20.25
2022-12-03T01:00:30.768Z,18.73
2022-12-03T01:02:57.418Z,21.63
2022-12-03T01:05:23.750Z,20.45
2022-12-03T01:07:50.179Z,18.35
2022-12-03T01:11:00.378Z,21.52
2022-12-03T01:13:29.720Z,16.98
2022-12-03T01:19:36.602Z,20.73
2022-12-03T01:23:03.836Z,24.02
2022-12-03T01:25:37.901Z,21.00
2022-12-03T01:28:41.674Z,21.80
2022-12-03T01:34:20.637Z,22.50
2022-12-03T01:37:40.134Z,22.27
2022-12-03T01:44:26.283Z,23.85
2022-12-03T01:49:46.826Z,20.95
2022-12-03T01:52:16.651Z,22.88
2022-12-03T01:54:51.910Z,22.42
2022-12-03T02:07:23.131Z,17.15
2022-12-03T02:16:24.121Z,19.97
2022-12-03T02:30:05.128Z,21.65
2022-12-03T02:36:19.028Z,20.33
2022-12-03T02:47:35.577Z,22.13
2022-12-03T02:50:02.535Z,23.23
2022-12-03T02:52:29.251Z,24.15
2022-12-03T02:58:46.931Z,24.55
2022-12-03T03:01:22.832Z,22.40
2022-12-03T03:03:51.855Z,20.67
2022-12-03T03:06:19.914Z,20.65
2022-12-03T03:08:47.778Z,20.05
2022-12-03T03:15:01.835Z,18.60
2022-12-03T03:21:18.088Z,22.10
2022-12-03T03:24:02.826Z,23.55
2022-12-03T03:26:31.718Z,21.98
2022-12-03T03:29:02.656Z,23.23
2022-12-03T03:31:29.126Z,21.37
2022-12-03T03:37:42.974Z,23.33
2022-12-03T03:40:32.422Z,16.15
2022-12-03T03:46:54.995Z,22.87
2022-12-03T03:53:51.664Z,20.13
2022-12-03T03:56:21.956Z,21.75
2022-12-03T03:58:49.184Z,21.73
2022-12-03T04:01:25.315Z,23.13
2022-12-03T04:03:54.184Z,25.55
2022-12-03T04:06:23.288Z,19.25
2022-12-03T04:09:19.857Z,23.98
2022-12-03T04:12:07.651Z,24.67
2022-12-03T04:14:34.004Z,24.30
2022-12-03T04:17:04.130Z,25.63
2022-12-03T04:23:13.774Z,20.30
2022-12-03T04:29:32.080Z,23.13
2022-12-03T04:32:19.326Z,22.08
2022-12-03T04:37:57.538Z,22.95
2022-12-03T04:48:10.499Z,22.58
2022-12-03T04:54:34.542Z,23.52
2022-12-03T05:00:50.143Z,19.83
2022-12-03T05:07:00.327Z,21.33
2022-12-03T05:09:29.738Z,22.92
2022-12-03T05:11:56.159Z,26.98
2022-12-03T05:14:22.627Z,24.23
2022-12-03T05:16:49.275Z,28.45
2022-12-03T05:19:48.742Z,24.92
2022-12-03T05:22:30.310Z,28.33
2022-12-03T05:25:03.890Z,27.25
2022-12-03T05:27:30.284Z,26.33
2022-12-03T05:29:56.692Z,29.17
2022-12-03T05:32:24.040Z,31.45
2022-12-03T05:34:53.224Z,30.02
2022-12-03T05:37:19.732Z,30.45
2022-12-03T05:39:52.241Z,29.70
2022-12-03T05:42:38.451Z,30.27
2022-12-03T05:45:05.368Z,30.95
2022-12-03T05:47:34.742Z,28.35
2022-12-03T05:50:04.263Z,26.60
2022-12-03T05:52:38.099Z,34.30
2022-12-03T05:55:06.907Z,28.15
2022-12-03T05:57:40.868Z,35.08
2022-12-03T06:00:17.017Z,29.98
2022-12-03T06:02:44.450Z,28.20
2022-12-03T06:05:12.792Z,26.47
2022-12-03T06:07:42.361Z,28.73
2022-12-03T06:10:14.694Z,27.65
2022-12-03T06:12:48.774Z,28.13
2022-12-03T06:15:19.082Z,26.40
2022-12-03T06:17:48.039Z,30.00
2022-12-03T06:20:19.059Z,25.80
2022-12-03T06:22:45.886Z,25.13
2022-12-03T06:25:20.637Z,30.02
2022-12-03T06:27:46.976Z,25.23
2022-12-03T06:30:19.493Z,26.33
2022-12-03T06:32:45.859Z,28.73
2022-12-03T06:35:12.574Z,31.58
2022-12-03T06:37:43.132Z,26.48
2022-12-03T06:40:10.159Z,25.55
2022-12-03T06:42:36.481Z,26.47
2022-12-03T06:45:15.927Z,27.73
2022-12-03T06:47:44.319Z,24.50
2022-12-03T06:50:11.074Z,25.98
2022-12-03T06:52:37.425Z,31.50
2022-12-03T06:55:04.050Z,24.47
2022-12-03T06:57:33.684Z,20.33
2022-12-03T07:00:04.930Z,23.73
2022-12-03T07:02:37.335Z,24.08
2022-12-03T07:05:05.369Z,25.25
2022-12-03T07:07:32.218Z,23.70
2022-12-03T07:10:01.764Z,23.73
2022-12-03T07:12:28.135Z,24.23
2022-12-03T07:14:54.645Z,24.33
2022-12-03T07:17:23.821Z,26.85
2022-12-03T07:20:15.148Z,25.10
2022-12-03T07:22:49.131Z,24.55
2022-12-03T07:25:21.294Z,25.67
2022-12-03T07:27:50.051Z,25.37
2022-12-03T07:30:19.502Z,28.13
2022-12-03T07:32:45.842Z,24.65
2022-12-03T07:35:24.539Z,26.75
2022-12-03T07:37:51.387Z,25.67
2022-12-03T07:40:18.067Z,24.97
2022-12-03T07:42:47.259Z,29.90
2022-12-03T07:45:21.127Z,28.88
2022-12-03T07:47:48.690Z,29.52
2022-12-03T07:50:15.174Z,27.35
2022-12-03T07:52:46.198Z,23.93
2022-12-03T07:55:13.667Z,27.17
2022-12-03T07:57:40.155Z,28.52
2022-12-03T08:00:13.698Z,28.60
2022-12-03T08:02:40.433Z,25.10
2022-12-03T08:05:12.722Z,26.10
2022-12-03T08:07:39.166Z,23.23
2022-12-03T08:10:09.285Z,26.95
2022-12-03T08:12:42.532Z,25.42
2022-12-03T08:15:13.863Z,26.77
2022-12-03T08:17:45.693Z,28.33
2022-12-03T08:20:29.327Z,29.65
2022-12-03T08:22:57.577Z,30.42
2022-12-03T08:25:31.632Z,28.90
2022-12-03T08:28:33.680Z,28.35
2022-12-03T08:31:32.638Z,29.97
2022-12-03T08:34:15.516Z,27.85
2022-12-03T08:36:46.196Z,30.48
2022-12-03T08:45:41.325Z,33.47
2022-12-03T08:48:44.006Z,33.40
2022-12-03T08:51:25.233Z,28.58
2022-12-03T08:54:03.598Z,29.10
2022-12-03T08:56:35.024Z,28.65
2022-12-03T08:59:30.716Z,30.60
2022-12-03T09:02:01.359Z,27.35
2022-12-03T09:04:36.856Z,32.47
2022-12-03T09:07:14.826Z,33.45
2022-12-03T09:09:46.809Z,31.40
2022-12-03T09:12:16.170Z,35.63
2022-12-03T09:14:42.491Z,31.98
2022-12-03T09:17:12.235Z,26.75
2022-12-03T09:20:07.067Z,32.22
2022-12-03T09:22:34.397Z,27.65
2022-12-03T09:25:03.895Z,29.23
2022-12-03T09:27:41.757Z,34.58
2022-12-03T09:30:08.695Z,31.00
2022-12-03T09:32:35.543Z,30.05
2022-12-03T09:35:01.941Z,35.03
2022-12-03T09:37:28.306Z,31.00
2022-12-03T09:39:54.632Z,33.47
2022-12-03T09:42:26.819Z,29.92
2022-12-03T09:44:54.395Z,39.05
2022-12-03T09:47:23.834Z,32.78
2022-12-03T09:49:50.394Z,28.57
2022-12-03T09:52:25.096Z,31.02
2022-12-03T09:54:54.103Z,32.33
2022-12-03T09:57:22.941Z,29.38
2022-12-03T09:59:56.265Z,32.67
2022-12-03T10:02:27.433Z,30.47
2022-12-03T10:05:02.256Z,23.02
2022-12-03T10:07:28.743Z,25.92
2022-12-03T10:15:23.814Z,29.63
2022-12-03T10:17:53.207Z,28.90
2022-12-03T10:20:27.635Z,31.10
2022-12-03T10:22:54.729Z,31.48
2022-12-03T10:25:47.990Z,31.92
2022-12-03T10:28:31.127Z,26.17
2022-12-03T10:30:59.127Z,31.23
2022-12-03T10:33:59.286Z,30.10
2022-12-03T10:36:26.523Z,34.45
2022-12-03T10:39:37.522Z,31.23
2022-12-03T10:42:18.816Z,38.23
2022-12-03T10:44:46.410Z,33.13
2022-12-03T10:47:17.710Z,32.22
2022-12-03T10:49:51.878Z,34.17
2022-12-03T10:52:30.882Z,28.50
2022-12-03T10:54:57.651Z,27.67
2022-12-03T10:57:25.147Z,32.92
2022-12-03T10:59:54.707Z,33.70
2022-12-03T11:02:30.135Z,30.02
2022-12-03T11:04:58.163Z,30.15
2022-12-03T11:07:33.920Z,34.03
2022-12-03T11:10:01.702Z,24.65
2022-12-03T11:12:36.889Z,30.60
2022-12-03T11:15:11.464Z,32.20
2022-12-03T11:17:43.796Z,26.45
2022-12-03T11:20:38.607Z,29.30
2022-12-03T11:23:10.506Z,27.58
2022-12-03T11:25:50.417Z,25.30
2022-12-03T11:28:24.237Z,21.70
2022-12-03T11:30:53.698Z,24.48
2022-12-03T11:33:27.232Z,29.70
2022-12-03T11:36:09.784Z,19.67
2022-12-03T11:38:53.337Z,23.17
2022-12-03T11:42:03.549Z,22.40
2022-12-03T11:44:38.762Z,20.30
2022-12-03T11:47:15.415Z,21.70
2022-12-03T11:49:47.661Z,19.70
2022-12-03T11:52:25.411Z,18.90
2022-12-03T11:55:19.460Z,20.20
2022-12-03T11:57:46.086Z,17.40
2022-12-03T12:00:30.629Z,19.47
2022-12-03T12:03:04.024Z,16.77
2022-12-03T12:05:33.619Z,16.13
2022-12-03T12:08:02.520Z,19.00
2022-12-03T12:10:48.900Z,20.60
2022-12-03T12:14:03.962Z,13.33
2022-12-03T12:16:58.354Z,15.60
2022-12-03T12:19:42.089Z,17.95
2022-12-03T12:22:31.669Z,20.10
2022-12-03T12:25:02.972Z,23.77
2022-12-03T12:27:46.202Z,21.63
2022-12-03T12:30:24.970Z,25.52
2022-12-03T12:33:26.588Z,18.52
2022-12-03T12:35:53.715Z,23.98
2022-12-03T12:38:24.441Z,29.27
2022-12-03T12:40:50.976Z,20.27
2022-12-03T12:43:33.063Z,27.95
2022-12-03T12:49:58.231Z,22.73
2022-12-03T12:52:32.533Z,21.20
2022-12-03T12:55:04.336Z,24.27
2022-12-03T12:57:34.572Z,18.60
2022-12-03T13:00:01.011Z,25.25
2022-12-03T13:17:37.410Z,25.92
2022-12-03T13:23:37.671Z,28.42
2022-12-03T13:26:39.286Z,26.57
2022-12-03T13:29:23.868Z,34.55
2022-12-03T13:31:54.152Z,50.65
2022-12-03T13:38:17.056Z,38.13
2022-12-03T13:40:43.745Z,36.27
2022-12-03T13:43:20.261Z,43.05
2022-12-03T13:45:49.193Z,35.92
2022-12-03T13:55:32.207Z,42.70
2022-12-03T14:02:38.029Z,43.50
2022-12-03T14:05:07.530Z,36.72
2022-12-03T14:07:58.889Z,47.78
2022-12-03T14:10:25.298Z,39.70
2022-12-03T14:13:43.958Z,41.63
2022-12-03T14:16:14.056Z,43.78
2022-12-03T14:18:44.953Z,38.95
2022-12-03T14:21:11.312Z,36.58
2022-12-03T14:23:41.451Z,41.03
2022-12-03T14:26:10.555Z,37.85
2022-12-03T14:31:25.971Z,39.60
2022-12-03T14:33:53.732Z,30.58
2022-12-03T14:36:20.132Z,26.33
2022-12-03T14:38:56.096Z,26.67
2022-12-03T14:44:38.994Z,25.08
2022-12-03T14:47:05.578Z,24.63
2022-12-03T14:49:35.199Z,28.57
2022-12-03T14:52:08.484Z,33.30
2022-12-03T14:54:44.587Z,43.78
2022-12-03T14:57:16.348Z,59.15
2022-12-03T14:59:47.458Z,42.38
2022-12-03T15:02:13.998Z,32.37
2022-12-03T15:04:43.889Z,28.88
2022-12-03T15:07:10.465Z,28.48
2022-12-03T15:09:36.981Z,25.48
2022-12-03T15:15:55.683Z,28.50
2022-12-03T15:22:31.809Z,28.38
2022-12-03T15:25:02.504Z,25.63
2022-12-03T15:27:34.501Z,26.52
2022-12-03T15:38:11.624Z,35.00
2022-12-03T15:41:30.812Z,36.13
2022-12-03T15:44:03.570Z,36.50
2022-12-03T15:46:33.458Z,38.00
2022-12-03T15:49:07.371Z,42.55
2022-12-03T15:51:40.045Z,41.90
2022-12-03T15:54:14.382Z,42.08
2022-12-03T15:56:41.071Z,35.30
2022-12-03T16:02:55.626Z,43.30
2022-12-03T16:05:43.843Z,33.53
2022-12-03T16:08:17.876Z,44.08
2022-12-03T16:10:44.853Z,42.33
2022-12-03T16:13:11.297Z,43.23
2022-12-03T16:19:24.711Z,41.90
2022-12-03T16:22:24.864Z,39.25
2022-12-03T16:24:54.267Z,44.92
2022-12-03T16:27:25.796Z,40.17
2022-12-03T16:29:57.302Z,44.70
2022-12-03T16:32:29.090Z,47.63
2022-12-03T16:35:32.229Z,41.55
2022-12-03T16:41:42.487Z,40.50
2022-12-03T16:48:18.792Z,43.90
2022-12-03T16:50:48.397Z,41.33
2022-12-03T16:53:22.341Z,38.45
2022-12-03T16:59:35.792Z,40.80
2022-12-03T17:05:49.985Z,39.83
2022-12-03T17:08:57.661Z,39.53
2022-12-03T17:11:24.032Z,34.40
2022-12-03T17:14:21.763Z,42.55
2022-12-03T17:16:51.354Z,39.33
2022-12-03T17:23:05.880Z,40.58
2022-12-03T17:29:43.334Z,40.85
2022-12-03T17:33:08.967Z,41.58
2022-12-03T17:35:35.475Z,44.47
2022-12-03T17:44:24.866Z,39.65
2022-12-03T17:50:39.784Z,35.90
2022-12-03T17:53:43.530Z,43.28
2022-12-03T17:56:13.612Z,48.07
2022-12-03T17:58:42.877Z,38.95
2022-12-03T18:01:49.178Z,44.22
2022-12-03T18:04:26.950Z,40.20
2022-12-03T18:06:58.901Z,49.58
2022-12-03T18:09:30.216Z,48.90
2022-12-03T18:11:56.609Z,43.13
2022-12-03T18:14:36.720Z,41.25
2022-12-03T18:17:05.778Z,48.97
2022-12-03T18:19:34.502Z,45.25
2022-12-03T18:22:00.853Z,47.23
2022-12-03T18:24:39.748Z,42.45
2022-12-03T18:27:06.205Z,40.28
2022-12-03T18:29:33.428Z,43.67
2022-12-03T18:32:03.847Z,43.45
2022-12-03T18:34:30.170Z,46.03
2022-12-03T18:36:59.599Z,47.17
2022-12-03T18:39:39.730Z,53.75
2022-12-03T18:42:22.286Z,47.97
2022-12-03T18:48:35.648Z,43.57
2022-12-03T18:51:31.748Z,39.40
2022-12-03T18:53:58.129Z,30.00
2022-12-03T18:56:37.749Z,47.20
2022-12-03T18:59:06.555Z,38.15
2022-12-03T19:01:34.405Z,38.33
2022-12-03T19:04:04.447Z,42.17
2022-12-03T19:06:31.368Z,38.85
2022-12-03T19:08:57.930Z,37.25
2022-12-03T19:11:24.737Z,43.63
2022-12-03T19:13:59.150Z,38.00
2022-12-03T19:19:19.874Z,38.40
2022-12-03T19:22:10.854Z,45.80
2022-12-03T19:24:37.254Z,36.28
2022-12-03T19:27:11.003Z,33.87
2022-12-03T19:29:43.122Z,34.13
2022-12-03T19:32:09.837Z,40.47
2022-12-03T19:34:38.046Z,35.80
2022-12-03T19:37:19.822Z,34.42
2022-12-03T19:39:46.725Z,37.53
2022-12-03T19:42:15.899Z,34.40
2022-12-03T19:44:42.276Z,38.33
2022-12-03T19:47:08.930Z,38.95
2022-12-03T19:49:40.379Z,38.63
2022-12-03T19:52:06.698Z,35.23
2022-12-03T19:54:33.020Z,39.20
2022-12-03T19:57:08.743Z,35.97
2022-12-03T19:59:35.418Z,37.83
2022-12-03T20:02:33.612Z,35.67
2022-12-03T20:05:02.515Z,32.30
2022-12-03T20:07:57.362Z,40.00
2022-12-03T20:10:23.802Z,35.28
2022-12-03T20:12:52.948Z,35.67
2022-12-03T20:15:19.365Z,34.38
2022-12-03T20:18:32.534Z,34.73
2022-12-03T20:28:32.794Z,29.13
2022-12-03T20:31:49.363Z,36.00
2022-12-03T20:34:15.799Z,33.83
2022-12-03T20:36:51.346Z,33.92
2022-12-03T20:39:17.754Z,32.80
2022-12-03T20:41:52.998Z,34.97
2022-12-03T20:44:19.399Z,35.05
2022-12-03T20:46:48.259Z,33.00
2022-12-03T20:49:20.951Z,36.55
2022-12-03T20:51:52.569Z,38.45
2022-12-03T20:54:22.123Z,35.78
2022-12-03T20:56:48.733Z,31.50
2022-12-03T20:59:24.674Z,36.43
2022-12-03T21:01:58.965Z,33.17
2022-12-03T21:04:27.998Z,36.55
2022-12-03T21:06:54.310Z,31.05
2022-12-03T21:09:23.610Z,40.83
2022-12-03T21:11:51.364Z,37.23
2022-12-03T21:14:17.780Z,33.97
2022-12-03T21:17:11.637Z,35.35
2022-12-03T21:19:38.281Z,32.15
2022-12-03T21:22:10.808Z,35.67
2022-12-03T21:24:38.830Z,36.40
2022-12-03T21:27:15.699Z,33.28
2022-12-03T21:29:44.791Z,36.40
2022-12-03T21:32:11.685Z,37.65
2022-12-03T21:34:38.063Z,38.42
2022-12-03T21:37:04.611Z,31.83
2022-12-03T21:39:31.157Z,35.40
2022-12-03T21:42:34.686Z,31.38
2022-12-03T21:44:52.374Z,35.88
2022-12-03T21:47:36.366Z,34.22
2022-12-03T21:50:12.480Z,39.07
2022-12-03T21:52:38.838Z,40.70
2022-12-03T21:55:09.591Z,40.65
2022-12-03T21:57:36.442Z,35.08
2022-12-03T22:00:37.246Z,31.13
2022-12-03T22:03:03.808Z,35.83
2022-12-03T22:05:43.419Z,30.95
2022-12-03T22:10:53.424Z,33.58
2022-12-03T22:13:24.116Z,40.72
2022-12-03T22:15:50.516Z,34.90
2022-12-03T22:18:46.925Z,32.42
2022-12-03T22:21:18.538Z,36.33
2022-12-03T22:23:48.596Z,31.33
2022-12-03T22:26:24.737Z,36.42
2022-12-03T22:28:54.054Z,39.03
2022-12-03T22:31:35.661Z,35.55
2022-12-03T22:34:02.395Z,34.17
2022-12-03T22:36:32.175Z,41.35
2022-12-03T22:38:58.580Z,34.70
2022-12-03T22:41:39.879Z,39.53
2022-12-03T22:44:06.226Z,38.92
2022-12-03T22:49:16.012Z,36.97
2022-12-03T22:51:46.087Z,37.42
2022-12-03T22:54:12.653Z,39.07
2022-12-03T22:56:41.903Z,40.55
2022-12-03T22:59:09.678Z,39.53
2022-12-03T23:08:07.590Z,42.23
2022-12-03T23:10:40.088Z,45.33
2022-12-03T23:13:08.138Z,42.58
2022-12-03T23:15:51.895Z,40.63
2022-12-03T23:18:20.284Z,46.30
2022-12-03T23:23:45.307Z,41.13
2022-12-03T23:29:37.486Z,40.40
2022-12-03T23:32:42.435Z,43.25
2022-12-03T23:35:09.211Z,41.87
2022-12-03T23:37:35.624Z,40.95
2022-12-03T23:43:35.275Z,35.65
2022-12-03T23:46:08.228Z,44.30
2022-12-03T23:48:37.811Z,43.23
2022-12-03T23:51:08.932Z,42.08
2022-12-03T23:53:39.923Z,46.33
2022-12-03T23:56:09.646Z,38.55
2022-12-03T23:58:36.488Z,44.40
